»·PEaware :: N7GL KPDX-KOTH

N7GL :: KPDX-KOTH

FLIGHT INFORMATION

Flight Status: Arrived
Operator: Privately registered:
United States
More flights under this callsign
Pilot: Georg L. (13308)
Aircraft: BEECH AIRCRAFT SUPER KING AIR 350
(B350)
More flights by this aircraft type
Origin: KPDX Portland Intl
United States
Destination: KOTH North Bend Mun
United States
More flights between these airports :: More routes between these airports
Route: +PTLD1 UBG V287 OTH
File this flight plan on PilotEdge
Remarks:
Altitude:
(Current/Filed)
16,000ft
Speed:
(Current/Filed)
298kts
Departed: 04-Nov-20 12:29 PM
Arrived: 04-Nov-20 01:15 PM
Distance/Time
Traveled:
148nm/0:45
Distance/Time
To Go:
Arrived

Flight Plot

Page will automatically refresh every two minutes.

Flight plan parsing failed; only flown route is shown


Map Options




Map Legend


Flown Route
Filed Route
Departure Airport
Arrival Airport
Navaid (VOR, NDB)
Fix

Horizontal Profiles

Position Reports

Time Latitude Longitude Heading Altitude Ground
Speed
04-Nov-20 12:11 45.585433 -122.578561 117 27ft 0kts
04-Nov-20 12:12 45.585433 -122.578561 117 27ft 0kts
04-Nov-20 12:13 45.585433 -122.578561 117 27ft 0kts
04-Nov-20 12:14 45.585433 -122.578561 117 27ft 0kts
04-Nov-20 12:15 45.585433 -122.578561 117 27ft 0kts
04-Nov-20 12:16 45.585433 -122.578561 117 27ft 0kts
04-Nov-20 12:17 45.585433 -122.578561 117 27ft 0kts
04-Nov-20 12:18 45.585433 -122.578561 117 27ft 0kts
04-Nov-20 12:19 45.585433 -122.578561 117 27ft 0kts
04-Nov-20 12:20 45.585433 -122.578561 117 27ft 0kts
04-Nov-20 12:21 45.586021 -122.578527 304 27ft 2kts
04-Nov-20 12:22 45.588431 -122.582532 299 27ft 25kts
04-Nov-20 12:23 45.591816 -122.591157 300 27ft 24kts
04-Nov-20 12:24 45.594450 -122.597558 51 27ft 6kts
04-Nov-20 12:25 45.594490 -122.597485 53 27ft 0kts
04-Nov-20 12:26 45.594489 -122.597485 52 27ft 0kts
04-Nov-20 12:27 45.594872 -122.596287 87 27ft 16kts
04-Nov-20 12:28 45.581675 -122.563567 125 956ft 156kts
04-Nov-20 12:29 45.560868 -122.513880 123 3065ft 182kts
04-Nov-20 12:30 45.535512 -122.448571 123 5429ft 197kts
04-Nov-20 12:31 45.502504 -122.391858 189 7560ft 172kts
04-Nov-20 12:32 45.485668 -122.442280 263 9897ft 161kts
04-Nov-20 12:33 45.474233 -122.500083 251 12220ft 151kts
04-Nov-20 12:34 45.460166 -122.556014 251 14618ft 149kts
04-Nov-20 12:35 45.445884 -122.613105 252 16046ft 181kts
04-Nov-20 12:36 45.425791 -122.693288 251 16024ft 240kts
04-Nov-20 12:37 45.402117 -122.787182 251 16004ft 258kts
04-Nov-20 12:38 45.377557 -122.883949 251 16010ft 261kts
04-Nov-20 12:39 45.346670 -122.976624 229 16007ft 267kts
04-Nov-20 12:40 45.278443 -123.025514 212 16008ft 278kts
04-Nov-20 12:41 45.207667 -123.071101 211 16007ft 279kts
04-Nov-20 12:42 45.136969 -123.116128 211 16007ft 279kts
04-Nov-20 12:43 45.066130 -123.160889 211 16015ft 279kts
04-Nov-20 12:44 44.995455 -123.205367 211 16031ft 279kts
04-Nov-20 12:45 44.924266 -123.250043 211 16041ft 280kts
04-Nov-20 12:46 44.853030 -123.294614 211 16043ft 280kts
04-Nov-20 12:47 44.781660 -123.339170 211 16041ft 281kts
04-Nov-20 12:48 44.710220 -123.383646 211 16042ft 282kts
04-Nov-20 12:49 44.638635 -123.428086 211 16041ft 282kts
04-Nov-20 12:50 44.566882 -123.472505 211 16041ft 282kts
04-Nov-20 12:51 44.495035 -123.516852 211 16040ft 282kts
04-Nov-20 12:52 44.422997 -123.561221 211 16051ft 283kts
04-Nov-20 12:53 44.351182 -123.605310 211 16066ft 283kts
04-Nov-20 12:54 44.278994 -123.649542 211 16076ft 283kts
04-Nov-20 12:55 44.206834 -123.693626 210 16083ft 285kts
04-Nov-20 12:56 44.134173 -123.737909 210 16086ft 285kts
04-Nov-20 12:57 44.065267 -123.789993 215 16089ft 283kts
04-Nov-20 12:58 43.996196 -123.842994 215 15767ft 293kts
04-Nov-20 12:59 43.924661 -123.897227 214 14259ft 284kts
04-Nov-20 13:00 43.856423 -123.948524 213 12750ft 275kts
04-Nov-20 13:01 43.789956 -123.998229 212 11262ft 270kts
04-Nov-20 13:02 43.724434 -124.047436 211 9770ft 264kts
04-Nov-20 13:03 43.661689 -124.094464 210 8250ft 247kts
04-Nov-20 13:04 43.600201 -124.122485 172 6684ft 240kts
04-Nov-20 13:05 43.557931 -124.050891 127 5368ft 244kts
04-Nov-20 13:06 43.515290 -123.985443 149 4338ft 220kts
04-Nov-20 13:07 43.463368 -123.949578 168 3899ft 203kts
04-Nov-20 13:09 43.414864 -123.966062 237 3789ft 194kts
04-Nov-20 13:10 43.412197 -124.040060 265 2867ft 192kts
04-Nov-20 13:11 43.414219 -124.108798 265 2270ft 157kts
04-Nov-20 13:12 43.417501 -124.162176 284 1588ft 141kts
04-Nov-20 13:13 43.427656 -124.210466 283 816ft 115kts
04-Nov-20 13:14 43.420494 -124.246490 239 14ft 79kts
04-Nov-20 13:15 43.417492 -124.250860 92 26ft 6kts
04-Nov-20 13:16 43.417632 -124.250421 58 27ft 5kts
04-Nov-20 13:17 43.418249 -124.246412 151 24ft 13kts
04-Nov-20 13:18 43.415102 -124.244425 250 23ft 6kts
04-Nov-20 13:19 43.414839 -124.244772 59 25ft 0kts
04-Nov-20 13:20 43.414839 -124.244772 59 25ft 0kts
04-Nov-20 13:21 43.414839 -124.244772 59 25ft 0kts
04-Nov-20 13:22 43.414839 -124.244772 59 25ft 0kts
04-Nov-20 13:23 43.414839 -124.244772 59 25ft 0kts
04-Nov-20 13:24 43.414839 -124.244772 59 25ft 0kts
04-Nov-20 13:24 43.414839 -124.244772 59 25ft 0kts
04-Nov-20 13:26 43.414839 -124.244772 59 25ft 0kts
04-Nov-20 13:26 43.414839 -124.244772 59 25ft 0kts
04-Nov-20 13:28 43.414839 -124.244772 59 25ft 0kts
04-Nov-20 13:28 43.414839 -124.244772 59 25ft 0kts

Navigation Log

Ident Type
Flight plan parsing failed, navigation log unavailable